sensor_id;sensor_type;location;lat;lon;timestamp;temperature;humidity
9768;DHT22;4923;52.520;13.494;2022-12-08T00:01:26;1.50;99.90
9768;DHT22;4923;52.520;13.494;2022-12-08T00:04:13;1.50;99.90
9768;DHT22;4923;52.520;13.494;2022-12-08T00:07:00;1.50;99.90
9768;DHT22;4923;52.520;13.494;2022-12-08T00:10:08;1.50;99.90
9768;DHT22;4923;52.520;13.494;2022-12-08T00:12:55;1.50;99.90
9768;DHT22;4923;52.520;13.494;2022-12-08T00:15:42;1.50;99.90
9768;DHT22;4923;52.520;13.494;2022-12-08T00:18:29;1.60;99.90
9768;DHT22;4923;52.520;13.494;2022-12-08T00:21:15;1.50;99.90
9768;DHT22;4923;52.520;13.494;2022-12-08T00:24:03;1.50;99.90
9768;DHT22;4923;52.520;13.494;2022-12-08T00:26:51;1.50;99.90
9768;DHT22;4923;52.520;13.494;2022-12-08T00:29:38;1.50;99.90
9768;DHT22;4923;52.520;13.494;2022-12-08T00:32:25;1.60;99.90
9768;DHT22;4923;52.520;13.494;2022-12-08T00:35:12;1.60;99.90
9768;DHT22;4923;52.520;13.494;2022-12-08T00:38:00;1.60;99.90
9768;DHT22;4923;52.520;13.494;2022-12-08T00:40:47;1.60;99.90
9768;DHT22;4923;52.520;13.494;2022-12-08T00:43:35;1.70;99.90
9768;DHT22;4923;52.520;13.494;2022-12-08T00:46:22;1.70;99.90
9768;DHT22;4923;52.520;13.494;2022-12-08T00:49:09;1.70;99.90
9768;DHT22;4923;52.520;13.494;2022-12-08T00:51:56;1.80;99.90
9768;DHT22;4923;52.520;13.494;2022-12-08T00:54:43;1.80;99.90
9768;DHT22;4923;52.520;13.494;2022-12-08T00:57:32;1.90;99.90
9768;DHT22;4923;52.520;13.494;2022-12-08T01:00:21;1.90;99.90
9768;DHT22;4923;52.520;13.494;2022-12-08T01:03:08;2.00;99.90
9768;DHT22;4923;52.520;13.494;2022-12-08T01:05:55;2.00;99.90
9768;DHT22;4923;52.520;13.494;2022-12-08T01:08:42;2.10;99.90
9768;DHT22;4923;52.520;13.494;2022-12-08T01:11:30;2.10;99.90
9768;DHT22;4923;52.520;13.494;2022-12-08T01:14:17;2.10;99.90
9768;DHT22;4923;52.520;13.494;2022-12-08T01:17:06;2.20;99.90
9768;DHT22;4923;52.520;13.494;2022-12-08T01:19:55;2.30;99.90
9768;DHT22;4923;52.520;13.494;2022-12-08T01:22:42;2.30;99.90
9768;DHT22;4923;52.520;13.494;2022-12-08T01:25:33;2.20;99.90
9768;DHT22;4923;52.520;13.494;2022-12-08T01:28:20;2.20;99.90
9768;DHT22;4923;52.520;13.494;2022-12-08T01:31:10;2.30;99.90
9768;DHT22;4923;52.520;13.494;2022-12-08T01:34:00;2.40;99.90
9768;DHT22;4923;52.520;13.494;2022-12-08T01:36:47;2.40;99.90
9768;DHT22;4923;52.520;13.494;2022-12-08T01:39:34;2.40;99.90
9768;DHT22;4923;52.520;13.494;2022-12-08T01:42:22;2.40;99.90
9768;DHT22;4923;52.520;13.494;2022-12-08T01:45:15;2.50;99.90
9768;DHT22;4923;52.520;13.494;2022-12-08T01:48:07;2.50;99.90
9768;DHT22;4923;52.520;13.494;2022-12-08T01:50:58;2.50;99.90
9768;DHT22;4923;52.520;13.494;2022-12-08T01:53:46;2.50;99.90
9768;DHT22;4923;52.520;13.494;2022-12-08T01:56:39;2.50;99.90
9768;DHT22;4923;52.520;13.494;2022-12-08T01:59:29;2.50;99.90
9768;DHT22;4923;52.520;13.494;2022-12-08T02:02:18;2.50;99.90
9768;DHT22;4923;52.520;13.494;2022-12-08T02:05:08;2.40;99.90
9768;DHT22;4923;52.520;13.494;2022-12-08T02:07:57;2.40;99.90
9768;DHT22;4923;52.520;13.494;2022-12-08T02:10:46;2.40;99.90
9768;DHT22;4923;52.520;13.494;2022-12-08T02:13:34;2.40;99.90
9768;DHT22;4923;52.520;13.494;2022-12-08T02:16:31;2.30;99.90
9768;DHT22;4923;52.520;13.494;2022-12-08T02:19:40;2.30;99.90
9768;DHT22;4923;52.520;13.494;2022-12-08T02:22:38;2.30;99.90
9768;DHT22;4923;52.520;13.494;2022-12-08T02:25:35;2.30;99.90
9768;DHT22;4923;52.520;13.494;2022-12-08T02:28:41;2.30;99.90
9768;DHT22;4923;52.520;13.494;2022-12-08T02:31:43;2.20;99.90
9768;DHT22;4923;52.520;13.494;2022-12-08T02:34:39;2.30;99.90
9768;DHT22;4923;52.520;13.494;2022-12-08T02:37:32;2.30;99.90
9768;DHT22;4923;52.520;13.494;2022-12-08T02:40:23;2.30;99.90
9768;DHT22;4923;52.520;13.494;2022-12-08T02:43:21;2.30;99.90
9768;DHT22;4923;52.520;13.494;2022-12-08T02:46:14;2.40;99.90
9768;DHT22;4923;52.520;13.494;2022-12-08T02:49:02;2.30;99.90
9768;DHT22;4923;52.520;13.494;2022-12-08T02:51:51;2.30;99.90
9768;DHT22;4923;52.520;13.494;2022-12-08T02:54:39;2.20;99.90
9768;DHT22;4923;52.520;13.494;2022-12-08T02:57:32;2.20;99.90
9768;DHT22;4923;52.520;13.494;2022-12-08T03:00:24;2.20;99.90
9768;DHT22;4923;52.520;13.494;2022-12-08T03:03:17;2.20;99.90
9768;DHT22;4923;52.520;13.494;2022-12-08T03:06:13;2.20;99.90
9768;DHT22;4923;52.520;13.494;2022-12-08T03:09:11;2.20;99.90
9768;DHT22;4923;52.520;13.494;2022-12-08T03:12:04;2.30;99.90
9768;DHT22;4923;52.520;13.494;2022-12-08T03:14:55;2.30;99.90
9768;DHT22;4923;52.520;13.494;2022-12-08T03:17:46;2.30;99.90
9768;DHT22;4923;52.520;13.494;2022-12-08T03:20:35;2.30;99.90
9768;DHT22;4923;52.520;13.494;2022-12-08T03:23:24;2.30;99.90
9768;DHT22;4923;52.520;13.494;2022-12-08T03:26:17;2.30;99.90
9768;DHT22;4923;52.520;13.494;2022-12-08T03:29:05;2.20;99.90
9768;DHT22;4923;52.520;13.494;2022-12-08T03:31:55;2.30;99.90
9768;DHT22;4923;52.520;13.494;2022-12-08T03:34:45;2.30;99.90
9768;DHT22;4923;52.520;13.494;2022-12-08T03:37:34;2.30;99.90
9768;DHT22;4923;52.520;13.494;2022-12-08T03:40:22;2.30;99.90
9768;DHT22;4923;52.520;13.494;2022-12-08T03:43:10;2.30;99.90
9768;DHT22;4923;52.520;13.494;2022-12-08T03:45:57;2.20;99.90
9768;DHT22;4923;52.520;13.494;2022-12-08T03:48:44;2.20;99.90
9768;DHT22;4923;52.520;13.494;2022-12-08T03:51:31;2.20;99.90
9768;DHT22;4923;52.520;13.494;2022-12-08T03:54:19;2.20;99.90
9768;DHT22;4923;52.520;13.494;2022-12-08T03:57:06;2.30;99.90
9768;DHT22;4923;52.520;13.494;2022-12-08T03:59:54;2.30;99.90
9768;DHT22;4923;52.520;13.494;2022-12-08T04:02:42;2.30;99.90
9768;DHT22;4923;52.520;13.494;2022-12-08T04:05:29;2.30;99.90
9768;DHT22;4923;52.520;13.494;2022-12-08T04:08:15;2.30;99.90
9768;DHT22;4923;52.520;13.494;2022-12-08T04:11:05;2.20;99.90
9768;DHT22;4923;52.520;13.494;2022-12-08T04:13:52;2.20;99.90
9768;DHT22;4923;52.520;13.494;2022-12-08T04:16:40;2.30;99.90
9768;DHT22;4923;52.520;13.494;2022-12-08T04:19:27;2.30;99.90
9768;DHT22;4923;52.520;13.494;2022-12-08T04:22:14;2.30;99.90
9768;DHT22;4923;52.520;13.494;2022-12-08T04:25:01;2.30;99.90
9768;DHT22;4923;52.520;13.494;2022-12-08T04:27:48;2.30;99.90
9768;DHT22;4923;52.520;13.494;2022-12-08T04:30:36;2.30;99.90
9768;DHT22;4923;52.520;13.494;2022-12-08T04:33:24;2.40;99.90
9768;DHT22;4923;52.520;13.494;2022-12-08T04:36:11;2.40;99.90
9768;DHT22;4923;52.520;13.494;2022-12-08T04:38:58;2.40;99.90
9768;DHT22;4923;52.520;13.494;2022-12-08T04:41:45;2.30;99.90
9768;DHT22;4923;52.520;13.494;2022-12-08T04:44:32;2.30;99.90
9768;DHT22;4923;52.520;13.494;2022-12-08T04:47:19;2.40;99.90
9768;DHT22;4923;52.520;13.494;2022-12-08T04:50:09;2.30;99.90
9768;DHT22;4923;52.520;13.494;2022-12-08T04:52:58;2.30;99.90
9768;DHT22;4923;52.520;13.494;2022-12-08T04:55:45;2.30;99.90
9768;DHT22;4923;52.520;13.494;2022-12-08T04:58:33;2.30;99.90
9768;DHT22;4923;52.520;13.494;2022-12-08T05:01:20;2.30;99.90
9768;DHT22;4923;52.520;13.494;2022-12-08T05:04:07;2.30;99.90
9768;DHT22;4923;52.520;13.494;2022-12-08T05:06:55;2.30;99.90
9768;DHT22;4923;52.520;13.494;2022-12-08T05:09:42;2.30;99.90
9768;DHT22;4923;52.520;13.494;2022-12-08T05:12:29;2.20;99.90
9768;DHT22;4923;52.520;13.494;2022-12-08T05:15:16;2.40;99.90
9768;DHT22;4923;52.520;13.494;2022-12-08T05:18:04;2.40;99.90
9768;DHT22;4923;52.520;13.494;2022-12-08T05:20:51;2.50;99.90
9768;DHT22;4923;52.520;13.494;2022-12-08T05:23:39;2.50;99.90
9768;DHT22;4923;52.520;13.494;2022-12-08T05:26:26;2.40;99.90
9768;DHT22;4923;52.520;13.494;2022-12-08T05:29:13;2.40;99.90
9768;DHT22;4923;52.520;13.494;2022-12-08T05:32:00;2.40;99.90
9768;DHT22;4923;52.520;13.494;2022-12-08T05:34:47;2.50;99.90
9768;DHT22;4923;52.520;13.494;2022-12-08T05:37:34;2.60;99.90
9768;DHT22;4923;52.520;13.494;2022-12-08T05:40:23;2.60;99.90
9768;DHT22;4923;52.520;13.494;2022-12-08T05:43:10;2.60;99.90
9768;DHT22;4923;52.520;13.494;2022-12-08T05:45:57;2.70;99.90
9768;DHT22;4923;52.520;13.494;2022-12-08T05:48:44;2.70;99.90
9768;DHT22;4923;52.520;13.494;2022-12-08T05:51:33;2.70;99.90
9768;DHT22;4923;52.520;13.494;2022-12-08T05:54:21;2.70;99.90
9768;DHT22;4923;52.520;13.494;2022-12-08T05:57:10;2.70;99.90
9768;DHT22;4923;52.520;13.494;2022-12-08T05:59:58;2.80;99.90
9768;DHT22;4923;52.520;13.494;2022-12-08T06:02:45;2.80;99.90
9768;DHT22;4923;52.520;13.494;2022-12-08T06:05:33;2.80;99.90
9768;DHT22;4923;52.520;13.494;2022-12-08T06:08:20;2.80;99.90
9768;DHT22;4923;52.520;13.494;2022-12-08T06:11:07;2.80;99.90
9768;DHT22;4923;52.520;13.494;2022-12-08T06:13:56;2.90;99.90
9768;DHT22;4923;52.520;13.494;2022-12-08T06:16:44;3.00;99.90
9768;DHT22;4923;52.520;13.494;2022-12-08T06:19:31;3.00;99.90
9768;DHT22;4923;52.520;13.494;2022-12-08T06:22:18;3.00;99.90
9768;DHT22;4923;52.520;13.494;2022-12-08T06:25:05;3.10;99.90
9768;DHT22;4923;52.520;13.494;2022-12-08T06:27:53;3.00;99.90
9768;DHT22;4923;52.520;13.494;2022-12-08T06:30:41;2.90;99.90
9768;DHT22;4923;52.520;13.494;2022-12-08T06:33:28;2.80;99.90
9768;DHT22;4923;52.520;13.494;2022-12-08T06:36:16;2.80;99.90
9768;DHT22;4923;52.520;13.494;2022-12-08T06:39:04;2.90;99.90
9768;DHT22;4923;52.520;13.494;2022-12-08T06:41:52;2.80;99.90
9768;DHT22;4923;52.520;13.494;2022-12-08T06:44:56;3.20;99.90
9768;DHT22;4923;52.520;13.494;2022-12-08T06:47:45;3.40;99.90
9768;DHT22;4923;52.520;13.494;2022-12-08T06:50:32;3.50;99.90
9768;DHT22;4923;52.520;13.494;2022-12-08T06:53:19;3.70;99.90
9768;DHT22;4923;52.520;13.494;2022-12-08T06:56:07;3.60;99.90
9768;DHT22;4923;52.520;13.494;2022-12-08T06:58:54;3.20;99.90
9768;DHT22;4923;52.520;13.494;2022-12-08T07:01:42;3.10;99.90
9768;DHT22;4923;52.520;13.494;2022-12-08T07:04:31;3.00;99.90
9768;DHT22;4923;52.520;13.494;2022-12-08T07:07:18;3.00;99.90
9768;DHT22;4923;52.520;13.494;2022-12-08T07:10:06;3.00;99.90
9768;DHT22;4923;52.520;13.494;2022-12-08T07:12:53;2.90;99.90
9768;DHT22;4923;52.520;13.494;2022-12-08T07:15:40;3.00;99.90
9768;DHT22;4923;52.520;13.494;2022-12-08T07:18:28;3.00;99.90
9768;DHT22;4923;52.520;13.494;2022-12-08T07:21:19;3.00;99.90
9768;DHT22;4923;52.520;13.494;2022-12-08T07:24:07;3.00;99.90
9768;DHT22;4923;52.520;13.494;2022-12-08T07:26:54;3.10;99.90
9768;DHT22;4923;52.520;13.494;2022-12-08T07:29:41;3.10;99.90
9768;DHT22;4923;52.520;13.494;2022-12-08T07:32:29;3.10;99.90
9768;DHT22;4923;52.520;13.494;2022-12-08T07:35:16;3.10;99.90
9768;DHT22;4923;52.520;13.494;2022-12-08T07:38:04;3.20;99.90
9768;DHT22;4923;52.520;13.494;2022-12-08T07:40:52;3.10;99.90
9768;DHT22;4923;52.520;13.494;2022-12-08T07:43:40;3.20;99.90
9768;DHT22;4923;52.520;13.494;2022-12-08T07:46:29;3.20;99.90
9768;DHT22;4923;52.520;13.494;2022-12-08T07:49:16;3.20;99.90
9768;DHT22;4923;52.520;13.494;2022-12-08T07:52:03;3.20;99.90
9768;DHT22;4923;52.520;13.494;2022-12-08T07:54:52;3.20;99.90
9768;DHT22;4923;52.520;13.494;2022-12-08T07:57:39;3.20;99.90
9768;DHT22;4923;52.520;13.494;2022-12-08T08:00:26;3.30;99.90
9768;DHT22;4923;52.520;13.494;2022-12-08T08:03:13;3.30;99.90
9768;DHT22;4923;52.520;13.494;2022-12-08T08:06:04;3.40;99.90
9768;DHT22;4923;52.520;13.494;2022-12-08T08:08:51;3.40;99.90
9768;DHT22;4923;52.520;13.494;2022-12-08T08:11:39;3.40;99.90
9768;DHT22;4923;52.520;13.494;2022-12-08T08:14:28;3.50;99.90
9768;DHT22;4923;52.520;13.494;2022-12-08T08:17:15;3.50;99.90
9768;DHT22;4923;52.520;13.494;2022-12-08T08:20:03;3.40;99.90
9768;DHT22;4923;52.520;13.494;2022-12-08T08:22:51;3.50;99.90
9768;DHT22;4923;52.520;13.494;2022-12-08T08:25:38;3.50;99.90
9768;DHT22;4923;52.520;13.494;2022-12-08T08:28:27;3.60;99.90
9768;DHT22;4923;52.520;13.494;2022-12-08T08:31:14;3.60;99.90
9768;DHT22;4923;52.520;13.494;2022-12-08T08:34:03;3.60;99.90
9768;DHT22;4923;52.520;13.494;2022-12-08T08:36:50;3.60;99.90
9768;DHT22;4923;52.520;13.494;2022-12-08T08:39:37;3.70;99.90
9768;DHT22;4923;52.520;13.494;2022-12-08T08:42:24;3.70;99.90
9768;DHT22;4923;52.520;13.494;2022-12-08T08:45:13;3.70;99.90
9768;DHT22;4923;52.520;13.494;2022-12-08T08:48:00;3.80;99.90
9768;DHT22;4923;52.520;13.494;2022-12-08T08:50:47;3.90;99.90
9768;DHT22;4923;52.520;13.494;2022-12-08T08:53:35;3.90;99.90
9768;DHT22;4923;52.520;13.494;2022-12-08T08:56:22;4.00;99.90
9768;DHT22;4923;52.520;13.494;2022-12-08T08:59:09;4.10;99.90
9768;DHT22;4923;52.520;13.494;2022-12-08T09:01:58;4.10;99.90
9768;DHT22;4923;52.520;13.494;2022-12-08T09:04:45;4.20;99.90
9768;DHT22;4923;52.520;13.494;2022-12-08T09:07:32;4.20;99.90
9768;DHT22;4923;52.520;13.494;2022-12-08T09:10:20;4.30;99.90
9768;DHT22;4923;52.520;13.494;2022-12-08T09:13:07;4.40;99.90
9768;DHT22;4923;52.520;13.494;2022-12-08T09:15:54;4.50;99.90
9768;DHT22;4923;52.520;13.494;2022-12-08T09:18:42;4.60;99.90
9768;DHT22;4923;52.520;13.494;2022-12-08T09:21:30;4.60;99.90
9768;DHT22;4923;52.520;13.494;2022-12-08T09:24:17;4.60;99.90
9768;DHT22;4923;52.520;13.494;2022-12-08T09:27:04;4.60;99.90
9768;DHT22;4923;52.520;13.494;2022-12-08T09:29:55;4.70;99.90
9768;DHT22;4923;52.520;13.494;2022-12-08T09:32:42;4.70;99.90
9768;DHT22;4923;52.520;13.494;2022-12-08T09:35:31;4.70;99.90
9768;DHT22;4923;52.520;13.494;2022-12-08T09:38:18;4.60;99.90
9768;DHT22;4923;52.520;13.494;2022-12-08T09:41:13;4.60;99.90
9768;DHT22;4923;52.520;13.494;2022-12-08T09:44:08;4.60;99.90
9768;DHT22;4923;52.520;13.494;2022-12-08T09:47:00;4.60;99.90
9768;DHT22;4923;52.520;13.494;2022-12-08T09:49:54;4.60;99.90
9768;DHT22;4923;52.520;13.494;2022-12-08T09:52:50;4.60;99.90
9768;DHT22;4923;52.520;13.494;2022-12-08T09:55:42;4.60;99.00
9768;DHT22;4923;52.520;13.494;2022-12-08T09:58:38;4.60;96.50
9768;DHT22;4923;52.520;13.494;2022-12-08T10:01:31;4.60;95.60
9768;DHT22;4923;52.520;13.494;2022-12-08T10:04:22;4.70;97.00
9768;DHT22;4923;52.520;13.494;2022-12-08T10:07:14;4.80;98.50
9768;DHT22;4923;52.520;13.494;2022-12-08T10:10:10;4.80;98.00
9768;DHT22;4923;52.520;13.494;2022-12-08T10:13:04;4.90;96.40
9768;DHT22;4923;52.520;13.494;2022-12-08T10:16:05;4.90;93.10
9768;DHT22;4923;52.520;13.494;2022-12-08T10:18:59;4.90;82.70
9768;DHT22;4923;52.520;13.494;2022-12-08T10:21:50;5.00;69.70
9768;DHT22;4923;52.520;13.494;2022-12-08T10:24:43;5.00;58.10
9768;DHT22;4923;52.520;13.494;2022-12-08T10:27:36;5.00;54.90
9768;DHT22;4923;52.520;13.494;2022-12-08T10:30:23;5.00;55.60
9768;DHT22;4923;52.520;13.494;2022-12-08T10:33:13;5.00;53.80
9768;DHT22;4923;52.520;13.494;2022-12-08T10:36:01;4.90;52.60
9768;DHT22;4923;52.520;13.494;2022-12-08T10:38:49;4.90;49.60
9768;DHT22;4923;52.520;13.494;2022-12-08T10:41:36;4.90;56.40
9768;DHT22;4923;52.520;13.494;2022-12-08T10:44:25;5.00;65.90
9768;DHT22;4923;52.520;13.494;2022-12-08T10:47:13;5.10;64.00
9768;DHT22;4923;52.520;13.494;2022-12-08T10:50:18;5.10;60.00
9768;DHT22;4923;52.520;13.494;2022-12-08T10:53:11;5.10;61.80
9768;DHT22;4923;52.520;13.494;2022-12-08T10:56:06;5.10;56.40
9768;DHT22;4923;52.520;13.494;2022-12-08T10:59:11;5.10;46.80
9768;DHT22;4923;52.520;13.494;2022-12-08T11:02:01;5.10;39.80
9768;DHT22;4923;52.520;13.494;2022-12-08T11:04:56;5.10;40.10
9768;DHT22;4923;52.520;13.494;2022-12-08T11:07:46;5.20;43.20
9768;DHT22;4923;52.520;13.494;2022-12-08T11:10:36;5.10;33.80
9768;DHT22;4923;52.520;13.494;2022-12-08T11:13:25;5.10;34.30
9768;DHT22;4923;52.520;13.494;2022-12-08T11:16:13;5.10;31.40
9768;DHT22;4923;52.520;13.494;2022-12-08T11:19:04;5.10;31.00
9768;DHT22;4923;52.520;13.494;2022-12-08T11:21:52;5.10;33.00
9768;DHT22;4923;52.520;13.494;2022-12-08T11:24:39;5.00;30.00
9768;DHT22;4923;52.520;13.494;2022-12-08T11:27:26;5.10;31.00
9768;DHT22;4923;52.520;13.494;2022-12-08T11:30:18;5.00;28.60
9768;DHT22;4923;52.520;13.494;2022-12-08T11:33:12;4.90;29.70
9768;DHT22;4923;52.520;13.494;2022-12-08T11:36:04;4.90;31.30
9768;DHT22;4923;52.520;13.494;2022-12-08T11:38:56;4.80;32.60
9768;DHT22;4923;52.520;13.494;2022-12-08T11:41:44;4.70;38.80
9768;DHT22;4923;52.520;13.494;2022-12-08T11:44:36;4.70;42.40
9768;DHT22;4923;52.520;13.494;2022-12-08T11:47:27;4.80;52.20
9768;DHT22;4923;52.520;13.494;2022-12-08T11:50:19;4.80;56.60
9768;DHT22;4923;52.520;13.494;2022-12-08T11:53:14;4.80;55.90
9768;DHT22;4923;52.520;13.494;2022-12-08T11:56:09;4.70;86.20
9768;DHT22;4923;52.520;13.494;2022-12-08T11:59:01;4.80;57.80
9768;DHT22;4923;52.520;13.494;2022-12-08T12:01:52;4.60;54.60
9768;DHT22;4923;52.520;13.494;2022-12-08T12:04:43;4.60;58.00
9768;DHT22;4923;52.520;13.494;2022-12-08T12:07:56;4.70;74.40
9768;DHT22;4923;52.520;13.494;2022-12-08T12:10:56;4.70;82.30
9768;DHT22;4923;52.520;13.494;2022-12-08T12:13:55;4.60;86.60
9768;DHT22;4923;52.520;13.494;2022-12-08T12:16:59;4.60;90.20
9768;DHT22;4923;52.520;13.494;2022-12-08T12:19:47;4.70;95.90
9768;DHT22;4923;52.520;13.494;2022-12-08T12:22:36;4.60;97.20
9768;DHT22;4923;52.520;13.494;2022-12-08T12:25:25;4.60;98.30
9768;DHT22;4923;52.520;13.494;2022-12-08T12:28:14;4.70;99.90
9768;DHT22;4923;52.520;13.494;2022-12-08T12:31:04;4.60;98.90
9768;DHT22;4923;52.520;13.494;2022-12-08T12:33:55;4.60;99.90
9768;DHT22;4923;52.520;13.494;2022-12-08T12:36:50;4.70;99.90
9768;DHT22;4923;52.520;13.494;2022-12-08T12:39:47;4.70;99.90
9768;DHT22;4923;52.520;13.494;2022-12-08T12:42:40;4.60;99.90
9768;DHT22;4923;52.520;13.494;2022-12-08T12:45:31;4.70;99.90
9768;DHT22;4923;52.520;13.494;2022-12-08T12:48:23;4.70;99.90
9768;DHT22;4923;52.520;13.494;2022-12-08T12:51:41;4.70;99.90
9768;DHT22;4923;52.520;13.494;2022-12-08T12:54:30;4.70;99.90
9768;DHT22;4923;52.520;13.494;2022-12-08T12:57:21;4.80;99.90
9768;DHT22;4923;52.520;13.494;2022-12-08T13:00:16;4.70;99.90
9768;DHT22;4923;52.520;13.494;2022-12-08T13:03:13;4.80;99.90
9768;DHT22;4923;52.520;13.494;2022-12-08T13:06:00;4.90;99.90
9768;DHT22;4923;52.520;13.494;2022-12-08T13:08:50;5.00;99.90
9768;DHT22;4923;52.520;13.494;2022-12-08T13:11:47;5.00;99.90
9768;DHT22;4923;52.520;13.494;2022-12-08T13:14:37;5.00;99.90
9768;DHT22;4923;52.520;13.494;2022-12-08T13:17:27;5.00;99.90
9768;DHT22;4923;52.520;13.494;2022-12-08T13:20:23;5.00;99.90
9768;DHT22;4923;52.520;13.494;2022-12-08T13:23:23;4.90;99.30
9768;DHT22;4923;52.520;13.494;2022-12-08T13:26:17;4.80;95.00
9768;DHT22;4923;52.520;13.494;2022-12-08T13:29:17;4.80;93.30
9768;DHT22;4923;52.520;13.494;2022-12-08T13:32:07;4.80;96.40
9768;DHT22;4923;52.520;13.494;2022-12-08T13:35:13;4.80;97.50
9768;DHT22;4923;52.520;13.494;2022-12-08T13:38:01;4.80;99.10
9768;DHT22;4923;52.520;13.494;2022-12-08T13:40:49;4.80;99.90
9768;DHT22;4923;52.520;13.494;2022-12-08T13:43:40;4.80;99.90
9768;DHT22;4923;52.520;13.494;2022-12-08T13:46:34;4.80;99.90
9768;DHT22;4923;52.520;13.494;2022-12-08T13:49:27;4.80;98.90
9768;DHT22;4923;52.520;13.494;2022-12-08T13:52:18;4.60;94.30
9768;DHT22;4923;52.520;13.494;2022-12-08T13:55:16;4.50;91.60
9768;DHT22;4923;52.520;13.494;2022-12-08T13:58:03;4.40;93.70
9768;DHT22;4923;52.520;13.494;2022-12-08T14:01:01;4.30;94.40
9768;DHT22;4923;52.520;13.494;2022-12-08T14:03:51;4.40;99.90
9768;DHT22;4923;52.520;13.494;2022-12-08T14:06:42;4.40;99.90
9768;DHT22;4923;52.520;13.494;2022-12-08T14:09:33;4.50;99.90
9768;DHT22;4923;52.520;13.494;2022-12-08T14:12:24;4.50;99.90
9768;DHT22;4923;52.520;13.494;2022-12-08T14:15:13;4.40;99.90
9768;DHT22;4923;52.520;13.494;2022-12-08T14:18:01;4.30;99.90
9768;DHT22;4923;52.520;13.494;2022-12-08T14:20:58;4.30;99.90
9768;DHT22;4923;52.520;13.494;2022-12-08T14:23:46;4.30;99.90
9768;DHT22;4923;52.520;13.494;2022-12-08T14:26:35;4.30;99.90
9768;DHT22;4923;52.520;13.494;2022-12-08T14:29:42;4.10;99.90
9768;DHT22;4923;52.520;13.494;2022-12-08T14:32:31;4.10;99.90
9768;DHT22;4923;52.520;13.494;2022-12-08T14:35:22;4.10;99.90
9768;DHT22;4923;52.520;13.494;2022-12-08T14:38:13;4.00;99.90
9768;DHT22;4923;52.520;13.494;2022-12-08T14:41:02;4.00;99.90
9768;DHT22;4923;52.520;13.494;2022-12-08T14:43:57;4.00;99.00
9768;DHT22;4923;52.520;13.494;2022-12-08T14:47:03;4.00;99.90
9768;DHT22;4923;52.520;13.494;2022-12-08T14:49:52;4.00;98.70
9768;DHT22;4923;52.520;13.494;2022-12-08T14:52:41;3.90;99.90
9768;DHT22;4923;52.520;13.494;2022-12-08T14:55:33;3.90;99.90
9768;DHT22;4923;52.520;13.494;2022-12-08T14:58:26;3.90;99.90
9768;DHT22;4923;52.520;13.494;2022-12-08T15:01:14;3.80;98.80
9768;DHT22;4923;52.520;13.494;2022-12-08T15:04:12;3.70;95.50
9768;DHT22;4923;52.520;13.494;2022-12-08T15:07:04;3.70;94.90
9768;DHT22;4923;52.520;13.494;2022-12-08T15:10:18;3.70;94.80
9768;DHT22;4923;52.520;13.494;2022-12-08T15:13:20;3.70;96.20
9768;DHT22;4923;52.520;13.494;2022-12-08T15:16:23;3.70;97.30
9768;DHT22;4923;52.520;13.494;2022-12-08T15:19:23;3.70;96.70
9768;DHT22;4923;52.520;13.494;2022-12-08T15:22:16;3.80;97.70
9768;DHT22;4923;52.520;13.494;2022-12-08T15:25:10;3.80;99.70
9768;DHT22;4923;52.520;13.494;2022-12-08T15:27:58;3.80;99.90
9768;DHT22;4923;52.520;13.494;2022-12-08T15:30:48;3.80;99.90
9768;DHT22;4923;52.520;13.494;2022-12-08T15:33:36;3.90;99.90
9768;DHT22;4923;52.520;13.494;2022-12-08T15:36:24;3.80;99.90
9768;DHT22;4923;52.520;13.494;2022-12-08T15:39:27;3.90;99.90
9768;DHT22;4923;52.520;13.494;2022-12-08T15:42:16;4.00;99.90
9768;DHT22;4923;52.520;13.494;2022-12-08T15:45:03;4.00;99.90
9768;DHT22;4923;52.520;13.494;2022-12-08T15:47:51;3.90;99.90
9768;DHT22;4923;52.520;13.494;2022-12-08T15:50:38;4.00;99.90
9768;DHT22;4923;52.520;13.494;2022-12-08T15:53:26;3.80;99.90
9768;DHT22;4923;52.520;13.494;2022-12-08T15:56:13;3.70;99.90
9768;DHT22;4923;52.520;13.494;2022-12-08T15:59:00;3.70;99.90
9768;DHT22;4923;52.520;13.494;2022-12-08T16:01:48;3.70;99.90
9768;DHT22;4923;52.520;13.494;2022-12-08T16:04:35;3.70;99.90
9768;DHT22;4923;52.520;13.494;2022-12-08T16:07:25;3.60;99.90
9768;DHT22;4923;52.520;13.494;2022-12-08T16:10:16;3.60;99.90
9768;DHT22;4923;52.520;13.494;2022-12-08T16:13:05;3.50;99.90
9768;DHT22;4923;52.520;13.494;2022-12-08T16:16:12;3.50;99.90
9768;DHT22;4923;52.520;13.494;2022-12-08T16:19:02;3.40;99.90
9768;DHT22;4923;52.520;13.494;2022-12-08T16:21:49;3.40;99.90
9768;DHT22;4923;52.520;13.494;2022-12-08T16:24:36;3.30;99.90
9768;DHT22;4923;52.520;13.494;2022-12-08T16:27:28;3.30;99.90
9768;DHT22;4923;52.520;13.494;2022-12-08T16:30:16;3.30;99.90
9768;DHT22;4923;52.520;13.494;2022-12-08T16:33:04;3.20;99.90
9768;DHT22;4923;52.520;13.494;2022-12-08T16:35:50;3.20;99.90
9768;DHT22;4923;52.520;13.494;2022-12-08T16:38:37;3.20;99.90
9768;DHT22;4923;52.520;13.494;2022-12-08T16:41:24;3.20;99.90
9768;DHT22;4923;52.520;13.494;2022-12-08T16:44:30;3.10;99.90
9768;DHT22;4923;52.520;13.494;2022-12-08T16:47:19;3.10;99.90
9768;DHT22;4923;52.520;13.494;2022-12-08T16:50:10;3.10;99.90
9768;DHT22;4923;52.520;13.494;2022-12-08T16:52:58;3.10;99.90
9768;DHT22;4923;52.520;13.494;2022-12-08T16:55:46;3.10;99.90
9768;DHT22;4923;52.520;13.494;2022-12-08T16:58:33;3.00;99.90
9768;DHT22;4923;52.520;13.494;2022-12-08T17:01:21;3.00;99.90
9768;DHT22;4923;52.520;13.494;2022-12-08T17:04:09;3.00;99.90
9768;DHT22;4923;52.520;13.494;2022-12-08T17:06:56;3.00;99.90
9768;DHT22;4923;52.520;13.494;2022-12-08T17:09:43;2.90;99.90
9768;DHT22;4923;52.520;13.494;2022-12-08T17:12:30;2.90;99.90
9768;DHT22;4923;52.520;13.494;2022-12-08T17:15:19;2.90;99.90
9768;DHT22;4923;52.520;13.494;2022-12-08T17:18:08;2.90;99.90
9768;DHT22;4923;52.520;13.494;2022-12-08T17:20:57;2.80;99.90
9768;DHT22;4923;52.520;13.494;2022-12-08T17:23:44;2.80;99.90
9768;DHT22;4923;52.520;13.494;2022-12-08T17:26:31;2.80;99.90
9768;DHT22;4923;52.520;13.494;2022-12-08T17:29:18;2.70;99.90
9768;DHT22;4923;52.520;13.494;2022-12-08T17:32:05;2.70;99.90
9768;DHT22;4923;52.520;13.494;2022-12-08T17:34:53;2.60;99.90
9768;DHT22;4923;52.520;13.494;2022-12-08T17:37:41;2.60;99.90
9768;DHT22;4923;52.520;13.494;2022-12-08T17:40:28;2.50;99.90
9768;DHT22;4923;52.520;13.494;2022-12-08T17:43:15;2.50;99.90
9768;DHT22;4923;52.520;13.494;2022-12-08T17:46:03;2.50;99.90
9768;DHT22;4923;52.520;13.494;2022-12-08T17:48:50;2.40;99.90
9768;DHT22;4923;52.520;13.494;2022-12-08T17:51:38;2.40;99.90
9768;DHT22;4923;52.520;13.494;2022-12-08T17:54:26;2.40;99.90
9768;DHT22;4923;52.520;13.494;2022-12-08T17:57:13;2.40;99.90
9768;DHT22;4923;52.520;13.494;2022-12-08T18:00:00;2.40;99.90
9768;DHT22;4923;52.520;13.494;2022-12-08T18:02:47;2.40;99.90
9768;DHT22;4923;52.520;13.494;2022-12-08T18:05:34;2.40;99.90
9768;DHT22;4923;52.520;13.494;2022-12-08T18:08:23;2.30;99.90
9768;DHT22;4923;52.520;13.494;2022-12-08T18:11:12;2.30;99.90
9768;DHT22;4923;52.520;13.494;2022-12-08T18:13:59;2.20;99.90
9768;DHT22;4923;52.520;13.494;2022-12-08T18:16:47;2.20;99.90
9768;DHT22;4923;52.520;13.494;2022-12-08T18:19:34;2.20;99.90
9768;DHT22;4923;52.520;13.494;2022-12-08T18:22:23;2.20;99.90
9768;DHT22;4923;52.520;13.494;2022-12-08T18:25:13;2.20;99.90
9768;DHT22;4923;52.520;13.494;2022-12-08T18:28:03;2.20;99.90
9768;DHT22;4923;52.520;13.494;2022-12-08T18:30:50;2.20;99.90